Terminal Aerodrome Forecast
Issued by NWS Topeka, KS

Home | Current Version | Previous Version | Text Only | Print | Product List | Glossary On
Versions: 1 2 3 4 5 6 7 8 9 10 11 12 13 14 15 16 17 18 19
757
FTUS43 KTOP 311120
TAFTOP
TAF
KTOP 311120Z 3112/0112 15003KT P6SM SCT020 BKN250
     FM311700 18007KT P6SM VCTS SCT020 BKN035CB
     FM312300 36003KT P6SM BKN050=

USA.gov is the U.S. government's official web portal to all federal, state and local government web resources and services.